O'Brien, Florida
Current Conditions -  °F | °C
As of 2:35 PM on Sunday 21 Dec 2014 (Local Time) from K24J Reporting Station
Overcast Overcast  
Wind Chill: 57°   Ceiling: 500
Heat Index: 57°   Visibility: 1.2mi
Dew Point: 57°   Wind: 5mph
Humidity: 100%   Direction: 30°NNE
Pressure: 30.07"   Gusts: NA
Location:  30.04°N, 82.94°W
Report Text: K24J 211935Z AUTO 03004KT 1 1/4SM OVC005 14/14 A3007 RMK AO1
Loading
Personal Weather Stations






























Interactive Weather Map New forecast layout! Learn more

10-Day Weather Forecast

Advertisements
Track Severe Weather on mobile